createdAt,value
2018-12-04T00:00:36.246Z,73.35
2018-12-04T00:02:41.166Z,73.32
2018-12-04T00:04:47.311Z,73.11
2018-12-04T00:06:54.944Z,72.88
2018-12-04T00:08:59.747Z,72.34
2018-12-04T00:11:05.003Z,71.62
2018-12-04T00:13:10.023Z,71.62
2018-12-04T00:15:14.962Z,71.54
2018-12-04T00:17:19.844Z,72.34
2018-12-04T00:19:25.475Z,72.32
2018-12-04T00:21:30.426Z,72.19
2018-12-04T00:23:35.168Z,73.22
2018-12-04T00:25:39.993Z,72.00
2018-12-04T00:27:44.725Z,72.48
2018-12-04T00:29:49.373Z,71.87
2018-12-04T00:31:54.835Z,72.32
2018-12-04T00:33:59.573Z,72.31
2018-12-04T00:36:04.460Z,73.20
2018-12-04T00:38:09.987Z,72.31
2018-12-04T00:40:14.777Z,72.12
2018-12-04T00:42:19.456Z,72.17
2018-12-04T00:44:24.170Z,71.23
2018-12-04T00:46:29.486Z,72.22
2018-12-04T00:48:34.144Z,72.03
2018-12-04T00:50:39.518Z,72.39
2018-12-04T00:52:44.272Z,72.77
2018-12-04T00:54:49.339Z,73.22
2018-12-04T00:56:58.248Z,72.78
2018-12-04T00:59:03.697Z,73.49
2018-12-04T01:01:09.813Z,73.46
2018-12-04T01:03:14.696Z,73.35
2018-12-04T01:05:19.780Z,73.48
2018-12-04T01:07:25.259Z,73.88
2018-12-04T01:09:30.051Z,74.00
2018-12-04T01:11:34.749Z,73.16
2018-12-04T01:13:39.798Z,73.37
2018-12-04T01:15:45.147Z,73.74
2018-12-04T01:17:50.034Z,74.03
2018-12-04T01:19:56.780Z,73.47
2018-12-04T01:22:01.481Z,73.66
2018-12-04T01:24:07.230Z,73.62
2018-12-04T01:26:11.953Z,73.52
2018-12-04T01:28:17.630Z,73.42
2018-12-04T01:30:22.430Z,72.81
2018-12-04T01:32:29.360Z,73.28
2018-12-04T01:34:34.110Z,72.63
2018-12-04T01:36:39.149Z,72.78
2018-12-04T01:38:43.909Z,73.17
2018-12-04T01:40:48.650Z,73.17
2018-12-04T01:42:53.464Z,73.85
2018-12-04T01:44:58.298Z,72.92
2018-12-04T01:47:03.001Z,73.12
2018-12-04T01:49:07.732Z,72.51
2018-12-04T01:51:12.467Z,72.30
2018-12-04T01:53:17.199Z,73.41
2018-12-04T01:55:21.977Z,73.43
2018-12-04T01:57:26.864Z,73.59
2018-12-04T01:59:31.597Z,74.29
2018-12-04T02:01:36.722Z,72.44
2018-12-04T02:03:42.415Z,73.18
2018-12-04T02:05:47.243Z,72.68
2018-12-04T02:07:52.019Z,72.53
2018-12-04T02:09:56.903Z,73.21
2018-12-04T02:12:01.782Z,73.37
2018-12-04T02:14:06.511Z,73.00
2018-12-04T02:16:12.206Z,73.45
2018-12-04T02:18:16.973Z,73.01
2018-12-04T02:20:21.712Z,72.68
2018-12-04T02:22:26.457Z,72.78
2018-12-04T02:24:31.237Z,73.26
2018-12-04T02:26:36.071Z,73.59
2018-12-04T02:28:43.298Z,73.62
2018-12-04T02:30:48.008Z,73.28
2018-12-04T02:32:52.914Z,73.54
2018-12-04T02:34:57.694Z,73.21
2018-12-04T02:37:02.659Z,73.18
2018-12-04T02:39:09.295Z,73.83
2018-12-04T02:41:13.985Z,73.16
2018-12-04T02:43:18.687Z,73.74
2018-12-04T02:45:23.687Z,73.80
2018-12-04T02:47:29.024Z,74.06
2018-12-04T02:49:33.848Z,74.23
2018-12-04T02:51:38.567Z,74.34
2018-12-04T02:53:43.401Z,74.58
2018-12-04T02:55:48.287Z,73.81
2018-12-04T02:57:53.090Z,74.43
2018-12-04T02:59:57.943Z,74.27
2018-12-04T03:02:02.751Z,73.91
2018-12-04T03:04:07.531Z,74.03
2018-12-04T03:06:12.292Z,74.41
2018-12-04T03:08:17.198Z,74.29
2018-12-04T03:10:21.969Z,74.51
2018-12-04T03:12:26.793Z,74.72
2018-12-04T03:14:31.663Z,74.25
2018-12-04T03:16:36.516Z,74.54
2018-12-04T03:18:41.637Z,73.79
2018-12-04T03:20:46.426Z,74.38
2018-12-04T03:22:51.309Z,74.80
2018-12-04T03:24:56.236Z,75.17
2018-12-04T03:27:02.680Z,74.63
2018-12-04T03:29:07.822Z,74.05
2018-12-04T03:31:12.540Z,74.29
2018-12-04T03:33:49.026Z,75.18
2018-12-04T03:35:54.545Z,74.72
2018-12-04T03:37:59.673Z,74.59
2018-12-04T03:40:05.621Z,75.45
2018-12-04T03:42:10.396Z,75.08
2018-12-04T03:44:15.128Z,75.61
2018-12-04T03:46:19.930Z,74.91
2018-12-04T03:48:25.337Z,74.97
2018-12-04T03:50:30.114Z,75.44
2018-12-04T03:52:35.459Z,75.69
2018-12-04T03:54:40.812Z,75.64
2018-12-04T03:56:45.604Z,75.76
2018-12-04T03:58:51.263Z,76.13
2018-12-04T04:00:56.012Z,75.89
2018-12-04T04:03:01.358Z,75.40
2018-12-04T04:05:06.760Z,75.01
2018-12-04T04:07:11.459Z,75.41
2018-12-04T04:09:16.539Z,75.36
2018-12-04T04:11:21.242Z,75.59
2018-12-04T04:13:50.293Z,75.83
2018-12-04T04:15:55.717Z,75.86
2018-12-04T04:18:00.580Z,75.53
2018-12-04T04:20:07.638Z,75.83
2018-12-04T04:22:12.442Z,75.52
2018-12-04T04:24:17.160Z,75.13
2018-12-04T04:26:21.907Z,75.80
2018-12-04T04:28:27.521Z,76.02
2018-12-04T04:30:32.291Z,76.45
2018-12-04T04:32:36.980Z,76.29
2018-12-04T04:34:41.780Z,75.07
2018-12-04T04:36:47.088Z,75.93
2018-12-04T04:38:51.837Z,76.23
2018-12-04T04:40:56.496Z,76.29
2018-12-04T04:43:01.205Z,76.52
2018-12-04T04:45:07.108Z,76.22
2018-12-04T04:47:11.838Z,75.64
2018-12-04T04:49:17.143Z,76.05
2018-12-04T04:51:21.911Z,76.58
2018-12-04T04:53:26.868Z,75.37
2018-12-04T04:55:31.643Z,76.10
2018-12-04T04:57:36.601Z,76.97
2018-12-04T04:59:41.423Z,76.78
2018-12-04T05:01:47.194Z,77.07
2018-12-04T05:03:51.888Z,76.93
2018-12-04T05:05:57.592Z,76.26
2018-12-04T05:08:02.517Z,76.29
2018-12-04T05:10:08.585Z,76.93
2018-12-04T05:12:13.397Z,76.88
2018-12-04T05:14:18.153Z,76.48
2018-12-04T05:16:23.092Z,76.40
2018-12-04T05:18:28.644Z,76.07
2018-12-04T05:20:33.465Z,75.03
2018-12-04T05:22:38.482Z,74.08
2018-12-04T05:24:43.318Z,74.01
2018-12-04T05:26:48.120Z,74.10
2018-12-04T05:28:53.510Z,74.45
2018-12-04T05:30:59.020Z,73.87
2018-12-04T05:33:04.036Z,73.62
2018-12-04T05:35:08.717Z,73.91
2018-12-04T05:37:13.482Z,73.37
2018-12-04T05:39:18.203Z,74.00
2018-12-04T05:41:22.950Z,73.81
2018-12-04T05:43:27.678Z,73.81
2018-12-04T05:45:32.601Z,73.03
2018-12-04T05:47:37.706Z,73.40
2018-12-04T05:49:43.622Z,73.39
2018-12-04T05:51:50.217Z,72.92
2018-12-04T05:53:55.481Z,72.66
2018-12-04T05:56:00.347Z,72.87
2018-12-04T05:58:05.296Z,72.96
2018-12-04T06:00:11.386Z,73.25
2018-12-04T06:02:20.757Z,73.44
2018-12-04T06:04:25.677Z,72.79
2018-12-04T06:06:30.768Z,72.81
2018-12-04T06:08:35.565Z,72.54
2018-12-04T06:10:43.224Z,72.99
2018-12-04T06:12:48.171Z,72.98
2018-12-04T06:14:54.074Z,72.73
2018-12-04T06:16:59.800Z,72.34
2018-12-04T06:19:04.743Z,72.81
2018-12-04T06:21:10.268Z,73.93
2018-12-04T06:23:17.085Z,74.14
2018-12-04T06:25:22.076Z,74.22
2018-12-04T06:27:26.869Z,74.63
2018-12-04T06:29:32.466Z,74.94
2018-12-04T06:31:38.412Z,74.63
2018-12-04T06:33:44.457Z,75.14
2018-12-04T06:35:49.630Z,75.39
2018-12-04T06:37:55.124Z,75.84
2018-12-04T06:40:00.671Z,76.16
2018-12-04T06:42:05.679Z,75.81
2018-12-04T06:44:10.577Z,75.59
2018-12-04T06:46:15.649Z,76.27
2018-12-04T06:48:21.213Z,75.45
2018-12-04T06:50:26.154Z,75.94
2018-12-04T06:52:30.902Z,76.22
2018-12-04T06:54:35.826Z,76.11
2018-12-04T06:56:41.324Z,76.68
2018-12-04T06:58:46.150Z,77.21
2018-12-04T07:00:50.844Z,77.42
2018-12-04T07:02:55.535Z,77.17
2018-12-04T07:05:01.950Z,77.52
2018-12-04T07:07:06.825Z,78.11
2018-12-04T07:09:11.565Z,77.50
2018-12-04T07:11:17.228Z,77.23
2018-12-04T07:13:22.332Z,77.06
2018-12-04T07:15:27.132Z,77.21
2018-12-04T07:17:36.340Z,77.42
2018-12-04T07:19:41.212Z,76.93
2018-12-04T07:21:47.267Z,76.50
2018-12-04T07:23:53.433Z,76.92
2018-12-04T07:26:00.132Z,76.65
2018-12-04T07:28:05.648Z,77.32
2018-12-04T07:30:11.492Z,76.81
2018-12-04T07:32:17.350Z,76.10
2018-12-04T07:34:23.190Z,76.21
2018-12-04T07:36:28.210Z,77.01
2018-12-04T07:38:33.146Z,75.89
2018-12-04T07:40:39.582Z,76.67
2018-12-04T07:42:45.492Z,76.29
2018-12-04T07:44:51.159Z,76.60
2018-12-04T07:46:56.937Z,76.27
2018-12-04T07:49:02.498Z,76.12
2018-12-04T07:51:07.503Z,75.72
2018-12-04T07:53:12.285Z,75.49
2018-12-04T07:55:17.737Z,75.05
2018-12-04T07:57:22.688Z,75.16
2018-12-04T07:59:27.861Z,74.89
2018-12-04T08:01:32.805Z,74.56
2018-12-04T08:03:37.627Z,74.34
2018-12-04T08:05:42.429Z,74.03
2018-12-04T08:07:47.291Z,74.03
2018-12-04T08:09:52.106Z,73.89
2018-12-04T08:11:57.224Z,74.09
2018-12-04T08:14:02.290Z,73.59
2018-12-04T08:16:07.052Z,74.22
2018-12-04T08:18:11.949Z,72.84
2018-12-04T08:20:16.823Z,73.23
2018-12-04T08:22:24.057Z,73.51
2018-12-04T08:24:30.508Z,73.88
2018-12-04T08:26:36.534Z,71.55
2018-12-04T08:28:42.018Z,71.89
2018-12-04T08:30:46.931Z,71.45
2018-12-04T08:32:52.669Z,71.33
2018-12-04T08:34:57.829Z,70.90
2018-12-04T08:37:02.742Z,71.91
2018-12-04T08:39:13.015Z,69.98
2018-12-04T08:41:17.150Z,70.68
2018-12-04T08:43:23.380Z,71.02
2018-12-04T08:45:28.199Z,70.88
2018-12-04T08:47:33.082Z,71.12
2018-12-04T08:49:37.997Z,69.91
2018-12-04T08:51:44.676Z,69.35
2018-12-04T08:53:49.691Z,69.22
2018-12-04T08:55:54.422Z,69.88
2018-12-04T08:57:59.793Z,70.08
2018-12-04T09:00:06.253Z,69.88
2018-12-04T09:02:11.080Z,69.87
2018-12-04T09:04:16.084Z,69.97
2018-12-04T09:06:21.217Z,70.16
2018-12-04T09:08:26.006Z,69.47
2018-12-04T09:10:32.001Z,69.15
2018-12-04T09:12:37.094Z,69.34
2018-12-04T09:14:41.887Z,69.35
2018-12-04T09:16:47.217Z,69.80
2018-12-04T09:18:52.153Z,68.29
2018-12-04T09:20:57.371Z,69.01
2018-12-04T09:23:02.416Z,69.77
2018-12-04T09:25:10.132Z,69.52
2018-12-04T09:27:15.240Z,69.14
2018-12-04T09:29:20.175Z,69.04
2018-12-04T09:31:26.027Z,69.67
2018-12-04T09:33:31.093Z,69.76
2018-12-04T09:35:36.977Z,69.97
2018-12-04T09:37:41.809Z,69.80
2018-12-04T09:39:46.737Z,69.68
2018-12-04T09:41:52.249Z,69.71
2018-12-04T09:43:58.596Z,69.74
2018-12-04T09:46:03.701Z,69.70
2018-12-04T09:48:11.092Z,69.33
2018-12-04T09:50:16.013Z,69.34
2018-12-04T09:52:22.718Z,69.57
2018-12-04T09:54:28.561Z,69.44
2018-12-04T09:56:33.412Z,70.12
2018-12-04T09:58:40.095Z,70.34
2018-12-04T10:00:45.164Z,70.65
2018-12-04T10:02:50.181Z,70.21
2018-12-04T10:04:55.472Z,70.34
2018-12-04T10:07:00.306Z,70.62
2018-12-04T10:09:09.165Z,69.11
2018-12-04T10:11:14.141Z,70.09
2018-12-04T10:13:23.363Z,68.55
2018-12-04T10:15:28.368Z,69.18
2018-12-04T10:17:34.856Z,68.75
2018-12-04T10:19:40.752Z,69.59
2018-12-04T10:21:46.838Z,69.55
2018-12-04T10:23:53.599Z,69.43
2018-12-04T10:25:58.575Z,68.84
2018-12-04T10:28:03.904Z,69.15
2018-12-04T10:30:10.985Z,67.72
2018-12-04T10:32:16.081Z,68.41
2018-12-04T10:34:21.362Z,68.21
2018-12-04T10:36:27.674Z,68.29
2018-12-04T10:38:32.604Z,67.88
2018-12-04T10:40:37.695Z,68.18
2018-12-04T10:42:42.760Z,67.53
2018-12-04T10:44:48.642Z,67.38
2018-12-04T10:46:56.489Z,67.08
2018-12-04T10:49:01.222Z,65.61
2018-12-04T10:51:07.067Z,64.49
2018-12-04T10:53:11.964Z,65.46
2018-12-04T10:55:19.642Z,64.99
2018-12-04T10:57:24.910Z,64.73
2018-12-04T10:59:29.815Z,65.09
2018-12-04T11:01:40.812Z,63.01
2018-12-04T11:03:45.694Z,63.38
2018-12-04T11:05:50.448Z,63.23
2018-12-04T11:07:56.092Z,62.80
2018-12-04T11:10:00.994Z,62.12
2018-12-04T11:12:05.996Z,62.43
2018-12-04T11:14:12.193Z,62.78
2018-12-04T11:16:17.023Z,63.49
2018-12-04T11:18:23.039Z,62.93
2018-12-04T11:20:29.376Z,62.16
2018-12-04T11:22:35.200Z,63.66
2018-12-04T11:27:05.222Z,62.64
2018-12-04T11:29:10.755Z,63.28
2018-12-04T11:31:16.091Z,62.71
2018-12-04T11:33:21.578Z,63.22
2018-12-04T11:38:34.987Z,60.60
2018-12-04T11:41:03.814Z,61.67
2018-12-04T11:43:11.372Z,60.91
2018-12-04T11:45:23.074Z,60.05
2018-12-04T11:47:31.135Z,58.87
2018-12-04T11:49:37.025Z,59.11
2018-12-04T11:51:42.251Z,59.88
2018-12-04T11:53:49.342Z,59.49
2018-12-04T11:55:54.204Z,59.99
2018-12-04T11:57:59.723Z,60.75
2018-12-04T12:00:13.581Z,60.35
2018-12-04T12:02:19.045Z,60.29
2018-12-04T12:04:24.703Z,59.51
2018-12-04T12:06:29.600Z,58.76
2018-12-04T12:08:34.705Z,59.14
2018-12-04T12:10:40.981Z,59.65
2018-12-04T12:12:47.101Z,59.47
2018-12-04T12:15:00.176Z,59.57
2018-12-04T12:17:06.940Z,58.98
2018-12-04T12:19:14.384Z,58.69
2018-12-04T12:21:20.233Z,58.93
2018-12-04T12:23:26.310Z,59.34
2018-12-04T12:25:32.697Z,59.21
2018-12-04T12:27:47.347Z,58.85
2018-12-04T12:29:56.293Z,58.99
2018-12-04T12:32:04.186Z,59.67
2018-12-04T12:34:09.221Z,59.28
2018-12-04T12:36:14.270Z,59.15
2018-12-04T12:38:20.105Z,58.72
2018-12-04T12:40:25.788Z,59.43
2018-12-04T12:42:30.670Z,58.63
2018-12-04T12:44:35.495Z,58.10
2018-12-04T12:46:40.505Z,59.62
2018-12-04T12:48:45.383Z,58.79
2018-12-04T12:50:50.471Z,59.27
2018-12-04T12:52:55.249Z,58.33
2018-12-04T12:54:59.980Z,59.53
2018-12-04T12:57:04.932Z,59.72
2018-12-04T12:59:10.739Z,59.53
2018-12-04T13:01:15.517Z,58.95
2018-12-04T13:03:20.981Z,58.59
2018-12-04T13:05:25.811Z,58.13
2018-12-04T13:07:30.655Z,58.10
2018-12-04T13:09:36.472Z,58.35
2018-12-04T13:11:41.424Z,58.30
2018-12-04T13:13:46.575Z,57.74
2018-12-04T13:15:51.817Z,57.46
2018-12-04T13:17:56.653Z,56.96
2018-12-04T13:20:02.619Z,57.99
2018-12-04T13:22:08.255Z,57.69
2018-12-04T13:24:13.617Z,58.31
2018-12-04T13:26:18.605Z,58.54
2018-12-04T13:28:23.526Z,58.21
2018-12-04T13:30:28.292Z,58.71
2018-12-04T13:32:33.186Z,58.88
2018-12-04T13:34:38.216Z,59.12
2018-12-04T13:36:43.092Z,58.99
2018-12-04T13:38:50.328Z,58.98
2018-12-04T13:40:55.428Z,59.45
2018-12-04T13:43:01.230Z,59.58
2018-12-04T13:45:08.061Z,59.88
2018-12-04T13:47:12.870Z,59.79
2018-12-04T13:49:17.893Z,59.55
2018-12-04T13:51:22.837Z,60.25
2018-12-04T13:53:27.593Z,60.06
2018-12-04T13:55:34.014Z,60.35
2018-12-04T13:57:39.161Z,60.33
2018-12-04T13:59:45.503Z,60.71
2018-12-04T14:01:51.495Z,60.77
2018-12-04T14:03:56.855Z,60.93
2018-12-04T14:06:01.872Z,61.11
2018-12-04T14:08:07.416Z,60.49
2018-12-04T14:10:13.472Z,60.71
2018-12-04T14:12:18.464Z,60.57
2018-12-04T14:14:23.632Z,60.80
2018-12-04T14:16:30.382Z,60.52
2018-12-04T14:18:36.168Z,60.93
2018-12-04T14:20:42.753Z,60.36
2018-12-04T14:22:47.582Z,60.95
2018-12-04T14:24:53.178Z,60.17
2018-12-04T14:26:58.905Z,59.96
2018-12-04T14:29:03.906Z,60.08
2018-12-04T14:31:09.193Z,60.18
2018-12-04T14:33:14.906Z,60.14
2018-12-04T14:35:19.705Z,60.31
2018-12-04T14:37:24.706Z,60.55
2018-12-04T14:39:29.613Z,60.95
2018-12-04T14:41:36.084Z,61.67
2018-12-04T14:43:41.179Z,61.77
2018-12-04T14:45:46.634Z,61.35
2018-12-04T14:47:53.109Z,61.81
2018-12-04T14:50:00.058Z,61.92
2018-12-04T14:52:05.913Z,61.96
2018-12-04T14:54:11.455Z,62.25
2018-12-04T14:56:19.627Z,62.25
2018-12-04T14:58:26.767Z,62.47
2018-12-04T15:00:45.916Z,62.40
2018-12-04T15:02:55.198Z,62.66
2018-12-04T15:05:01.134Z,62.66
2018-12-04T15:07:06.131Z,63.03
2018-12-04T15:09:12.057Z,62.62
2018-12-04T15:11:22.226Z,62.89
2018-12-04T15:13:33.522Z,62.38
2018-12-04T15:15:39.699Z,62.53
2018-12-04T15:17:50.641Z,62.79
2018-12-04T15:20:02.921Z,63.23
2018-12-04T15:22:14.266Z,63.49
2018-12-04T15:24:19.457Z,64.29
2018-12-04T15:26:26.282Z,64.47
2018-12-04T15:28:32.430Z,64.28
2018-12-04T15:30:37.438Z,64.84
2018-12-04T15:32:42.542Z,64.37
2018-12-04T15:34:48.184Z,64.65
2018-12-04T15:36:56.647Z,64.63
2018-12-04T15:39:01.300Z,65.14
2018-12-04T15:41:07.047Z,65.65
2018-12-04T15:43:12.283Z,64.58
2018-12-04T15:45:17.545Z,65.43
2018-12-04T15:47:23.479Z,66.08
2018-12-04T15:49:28.749Z,65.98
2018-12-04T15:51:34.716Z,65.70
2018-12-04T15:53:39.983Z,65.86
2018-12-04T15:55:45.337Z,66.36
2018-12-04T15:57:50.489Z,65.85
2018-12-04T15:59:55.592Z,66.67
2018-12-04T16:02:00.727Z,67.28
2018-12-04T16:04:06.056Z,67.21
2018-12-04T16:06:10.996Z,67.68
2018-12-04T16:08:16.300Z,67.91
2018-12-04T16:10:21.929Z,68.27
2018-12-04T16:12:26.908Z,68.39
2018-12-04T16:14:32.055Z,68.85
2018-12-04T16:16:37.077Z,69.37
2018-12-04T16:18:42.473Z,69.63
2018-12-04T16:20:49.031Z,69.90
2018-12-04T16:22:54.514Z,70.66
2018-12-04T16:24:59.480Z,68.60
2018-12-04T16:27:05.915Z,67.98
2018-12-04T16:29:11.036Z,67.96
2018-12-04T16:31:16.067Z,68.44
2018-12-04T16:33:21.333Z,68.02
2018-12-04T16:35:26.730Z,68.25
2018-12-04T16:37:31.592Z,67.05
2018-12-04T16:39:36.593Z,67.24
2018-12-04T16:41:43.699Z,67.52
2018-12-04T16:43:49.511Z,67.93
2018-12-04T16:45:54.698Z,68.00
2018-12-04T16:47:59.824Z,68.22
2018-12-04T16:50:05.877Z,68.51
2018-12-04T16:52:11.063Z,68.54
2018-12-04T16:54:16.002Z,69.00
2018-12-04T16:56:21.383Z,69.17
2018-12-04T16:58:26.880Z,69.17
2018-12-04T17:00:32.230Z,69.51
2018-12-04T17:02:38.142Z,69.80
2018-12-04T17:04:43.844Z,70.10
2018-12-04T17:06:49.937Z,70.21
2018-12-04T17:08:56.194Z,70.42
2018-12-04T17:11:01.366Z,70.54
2018-12-04T17:13:06.555Z,70.87
2018-12-04T17:15:11.776Z,70.54
2018-12-04T17:17:16.668Z,70.94
2018-12-04T17:19:22.392Z,71.04
2018-12-04T17:21:29.603Z,71.37
2018-12-04T17:23:36.748Z,71.21
2018-12-04T17:25:42.411Z,71.45
2018-12-04T17:27:47.499Z,70.97
2018-12-04T17:29:52.696Z,71.18
2018-12-04T17:31:58.732Z,71.06
2018-12-04T17:34:04.219Z,71.54
2018-12-04T17:36:09.455Z,71.07
2018-12-04T17:38:14.941Z,71.31
2018-12-04T17:40:20.955Z,71.14
2018-12-04T17:42:25.828Z,71.22
2018-12-04T17:44:30.906Z,71.43
2018-12-04T17:46:36.561Z,71.54
2018-12-04T17:48:42.610Z,71.37
2018-12-04T17:50:49.198Z,71.69
2018-12-04T17:53:01.975Z,72.12
2018-12-04T17:55:15.964Z,72.39
2018-12-04T17:57:25.196Z,73.24
2018-12-04T17:59:33.932Z,72.55
2018-12-04T18:01:57.262Z,72.65
2018-12-04T18:04:11.272Z,72.94
2018-12-04T18:06:20.991Z,72.65
2018-12-04T18:08:41.160Z,72.94
2018-12-04T18:11:00.557Z,72.97
2018-12-04T18:13:14.819Z,73.42
2018-12-04T18:15:30.878Z,73.76
2018-12-04T18:17:39.115Z,73.45
2018-12-04T18:19:49.387Z,73.45
2018-12-04T18:21:58.697Z,73.47
2018-12-04T18:24:10.578Z,73.81
2018-12-04T18:26:21.496Z,74.49
2018-12-04T18:28:31.128Z,74.72
2018-12-04T18:30:36.663Z,74.31
2018-12-04T18:32:42.182Z,74.52
2018-12-04T18:35:03.720Z,74.72
2018-12-04T18:37:09.536Z,75.12
2018-12-04T18:39:14.612Z,75.24
2018-12-04T18:41:21.426Z,74.79
2018-12-04T18:43:26.631Z,75.25
2018-12-04T18:45:34.144Z,75.42
2018-12-04T18:47:39.521Z,75.41
2018-12-04T18:49:45.724Z,75.74
2018-12-04T18:51:51.167Z,75.85
2018-12-04T18:53:59.428Z,75.86
2018-12-04T18:56:06.917Z,76.13
2018-12-04T18:58:12.964Z,76.62
2018-12-04T19:00:17.960Z,76.49
2018-12-04T19:02:23.288Z,76.43
2018-12-04T19:04:29.509Z,76.33
2018-12-04T19:06:35.565Z,76.35
2018-12-04T19:08:46.348Z,76.43
2018-12-04T19:10:51.922Z,76.70
2018-12-04T19:12:57.389Z,76.89
2018-12-04T19:15:02.227Z,76.96
2018-12-04T19:17:13.436Z,76.75
2018-12-04T19:19:23.326Z,76.81
2018-12-04T19:21:48.031Z,76.75
2018-12-04T19:23:55.602Z,77.01
2018-12-04T19:26:15.936Z,76.60
2018-12-04T19:28:28.374Z,76.84
2018-12-04T19:30:49.407Z,76.97
2018-12-04T19:33:00.021Z,77.00
2018-12-04T19:35:05.963Z,77.16
2018-12-04T19:37:11.835Z,77.22
2018-12-04T19:39:17.217Z,77.21
2018-12-04T19:41:22.507Z,77.50
2018-12-04T19:43:29.399Z,77.67
2018-12-04T19:45:38.020Z,78.08
2018-12-04T19:49:58.298Z,77.40
2018-12-04T19:52:05.133Z,77.64
2018-12-04T19:54:14.562Z,77.93
2018-12-04T19:56:21.934Z,77.95
2018-12-04T19:58:27.738Z,77.51
2018-12-04T20:00:35.620Z,77.83
2018-12-04T20:02:43.530Z,77.88
2018-12-04T20:04:48.902Z,77.88
2018-12-04T20:06:54.099Z,78.25
2018-12-04T20:09:09.000Z,78.08
2018-12-04T20:11:23.265Z,78.21
2018-12-04T20:13:44.962Z,77.91
2018-12-04T20:15:51.622Z,77.91
2018-12-04T20:18:06.008Z,78.17
2018-12-04T20:20:11.386Z,78.02
2018-12-04T20:22:19.694Z,77.92
2018-12-04T20:27:04.076Z,78.82
2018-12-04T20:29:32.625Z,78.57
2018-12-04T20:31:59.059Z,78.31
2018-12-04T20:34:25.358Z,78.58
2018-12-04T20:36:35.371Z,78.61
2018-12-04T20:38:56.877Z,78.73
2018-12-04T20:41:38.352Z,78.77
2018-12-04T20:43:46.616Z,78.76
2018-12-04T20:45:58.665Z,78.21
2018-12-04T20:48:07.528Z,78.55
2018-12-04T20:50:12.825Z,78.99
2018-12-04T20:52:33.168Z,79.13
2018-12-04T20:54:45.715Z,79.32
2018-12-04T20:57:05.341Z,79.18
2018-12-04T20:59:10.574Z,79.32
2018-12-04T21:01:15.645Z,79.78
2018-12-04T21:03:20.531Z,79.17
2018-12-04T21:05:25.731Z,79.15
2018-12-04T21:07:32.753Z,79.75
2018-12-04T21:09:37.699Z,79.72
2018-12-04T21:11:43.950Z,79.92
2018-12-04T21:13:49.182Z,79.39
2018-12-04T21:15:54.214Z,79.95
2018-12-04T21:17:59.134Z,79.71
2018-12-04T21:20:08.674Z,80.07
2018-12-04T21:22:14.651Z,79.96
2018-12-04T21:24:29.939Z,79.61
2018-12-04T21:26:36.953Z,79.49
2018-12-04T21:28:50.861Z,80.17
2018-12-04T21:31:05.265Z,80.11
2018-12-04T21:33:16.807Z,80.23
2018-12-04T21:35:42.948Z,79.99
2018-12-04T21:37:53.961Z,80.09
2018-12-04T21:40:04.467Z,80.05
2018-12-04T21:42:16.645Z,80.02
2018-12-04T21:46:27.946Z,80.04
2018-12-04T21:48:35.350Z,79.97
2018-12-04T21:50:40.291Z,79.87
2018-12-04T21:52:45.383Z,79.83
2018-12-04T21:54:51.196Z,80.17
2018-12-04T21:56:56.886Z,80.47
2018-12-04T21:59:02.350Z,80.55
2018-12-04T22:01:23.700Z,79.97
2018-12-04T22:03:30.412Z,80.02
2018-12-04T22:05:35.525Z,79.90
2018-12-04T22:07:40.528Z,80.40
2018-12-04T22:09:46.981Z,80.53
2018-12-04T22:11:59.921Z,80.20
2018-12-04T22:14:09.441Z,80.08
2018-12-04T22:16:14.258Z,79.87
2018-12-04T22:18:21.058Z,79.42
2018-12-04T22:20:26.141Z,79.22
2018-12-04T22:22:33.598Z,79.11
2018-12-04T22:24:48.778Z,79.10
2018-12-04T22:27:10.054Z,79.01
2018-12-04T22:29:20.840Z,78.72
2018-12-04T22:31:41.441Z,78.49
2018-12-04T22:34:15.676Z,78.57
2018-12-04T22:36:41.299Z,79.11
2018-12-04T22:39:19.764Z,79.25
2018-12-04T22:41:29.762Z,78.53
2018-12-04T22:43:37.763Z,78.17
2018-12-04T22:49:03.041Z,78.46
2018-12-04T22:51:09.954Z,78.64
2018-12-04T22:53:14.778Z,78.29
2018-12-04T22:56:01.665Z,78.26
2018-12-04T22:58:37.373Z,78.00
2018-12-04T23:00:43.902Z,78.18
2018-12-04T23:02:51.515Z,77.99
2018-12-04T23:04:56.964Z,78.07
2018-12-04T23:07:02.739Z,78.08
2018-12-04T23:09:13.516Z,77.59
2018-12-04T23:11:18.863Z,77.79
2018-12-04T23:13:24.633Z,77.54
2018-12-04T23:15:31.712Z,77.28
2018-12-04T23:17:37.176Z,77.09
2018-12-04T23:20:11.838Z,76.79
2018-12-04T23:22:45.817Z,76.84
2018-12-04T23:24:52.024Z,76.51
2018-12-04T23:26:57.224Z,76.99
2018-12-04T23:29:06.778Z,76.94
2018-12-04T23:31:14.111Z,76.65
2018-12-04T23:33:29.230Z,76.72
2018-12-04T23:35:36.207Z,76.85
2018-12-04T23:37:43.803Z,76.63
2018-12-04T23:39:53.510Z,76.34
2018-12-04T23:42:02.693Z,75.92
2018-12-04T23:44:18.138Z,76.30
2018-12-04T23:46:26.532Z,76.62
2018-12-04T23:48:34.383Z,76.29
2018-12-04T23:50:41.927Z,76.67
2018-12-04T23:52:53.967Z,76.94
2018-12-04T23:55:00.993Z,76.38
2018-12-04T23:57:10.249Z,76.61
2018-12-04T23:59:27.383Z,76.07
